createdAt,value
2018-04-24T00:01:50.004Z,59.20
2018-04-24T00:04:17.580Z,59.20
2018-04-24T00:06:45.129Z,59.30
2018-04-24T00:09:12.759Z,59.20
2018-04-24T00:11:40.331Z,59.40
2018-04-24T00:14:07.877Z,59.00
2018-04-24T00:16:35.428Z,59.10
2018-04-24T00:19:03.082Z,59.10
2018-04-24T00:21:30.624Z,59.10
2018-04-24T00:23:58.224Z,59.00
2018-04-24T00:26:25.793Z,59.10
2018-04-24T00:28:53.332Z,58.90
2018-04-24T00:31:20.887Z,59.20
2018-04-24T00:33:48.491Z,59.10
2018-04-24T00:36:16.058Z,58.80
2018-04-24T00:38:43.626Z,58.70
2018-04-24T00:41:11.200Z,58.80
2018-04-24T00:43:38.756Z,59.40
2018-04-24T00:46:07.091Z,58.90
2018-04-24T00:48:34.635Z,58.90
2018-04-24T00:51:02.200Z,59.00
2018-04-24T00:53:36.648Z,58.80
2018-04-24T00:56:04.225Z,59.70
2018-04-24T00:58:31.793Z,59.10
2018-04-24T01:01:00.102Z,59.30
2018-04-24T01:03:27.681Z,59.30
2018-04-24T01:05:55.259Z,59.50
2018-04-24T01:08:23.232Z,59.70
2018-04-24T01:10:50.828Z,59.70
2018-04-24T01:13:18.393Z,59.60
2018-04-24T01:15:46.747Z,59.60
2018-04-24T01:18:14.316Z,59.50
2018-04-24T01:20:41.915Z,59.50
2018-04-24T01:23:09.537Z,59.40
2018-04-24T01:25:37.119Z,59.80
2018-04-24T01:28:04.699Z,59.50
2018-04-24T01:30:32.298Z,59.60
2018-04-24T01:32:59.868Z,59.40
2018-04-24T01:35:27.519Z,59.20
2018-04-24T01:37:55.078Z,59.20
2018-04-24T01:40:22.639Z,59.00
2018-04-24T01:42:50.230Z,59.20
2018-04-24T01:45:17.786Z,59.30
2018-04-24T01:47:46.144Z,59.40
2018-04-24T01:50:13.735Z,59.50
2018-04-24T01:52:41.301Z,59.60
2018-04-24T01:55:08.896Z,59.80
2018-04-24T01:57:36.451Z,59.60
2018-04-24T02:00:04.043Z,59.80
2018-04-24T02:02:31.605Z,59.80
2018-04-24T02:04:59.161Z,59.90
2018-04-24T02:07:26.724Z,59.80
2018-04-24T02:09:54.314Z,59.50
2018-04-24T02:12:21.867Z,59.50
2018-04-24T02:14:49.454Z,59.40
2018-04-24T02:17:17.045Z,59.40
2018-04-24T02:19:44.630Z,59.40
2018-04-24T02:22:12.206Z,59.20
2018-04-24T02:24:39.781Z,59.20
2018-04-24T02:27:07.393Z,59.60
2018-04-24T02:29:35.220Z,59.70
2018-04-24T02:32:02.785Z,59.70
2018-04-24T02:34:30.368Z,59.70
2018-04-24T02:36:57.924Z,59.70
2018-04-24T02:39:25.511Z,59.70
2018-04-24T02:41:53.043Z,59.80
2018-04-24T02:44:20.731Z,60.30
2018-04-24T02:46:48.808Z,59.60
2018-04-24T02:49:16.381Z,59.80
2018-04-24T02:51:43.912Z,59.70
2018-04-24T02:54:11.468Z,59.70
2018-04-24T02:56:39.030Z,59.70
2018-04-24T02:59:07.392Z,59.80
2018-04-24T03:01:35.180Z,59.70
2018-04-24T03:04:02.726Z,59.80
2018-04-24T03:06:30.293Z,60.30
2018-04-24T03:08:57.835Z,60.20
2018-04-24T03:11:25.412Z,60.50
2018-04-24T03:13:52.996Z,60.20
2018-04-24T03:16:20.571Z,59.90
2018-04-24T03:18:48.952Z,59.80
2018-04-24T03:21:16.496Z,59.70
2018-04-24T03:23:44.068Z,60.10
2018-04-24T03:26:12.406Z,59.90
2018-04-24T03:28:39.946Z,59.90
2018-04-24T03:31:07.591Z,60.10
2018-04-24T03:33:35.160Z,60.20
2018-04-24T03:36:02.743Z,60.00
2018-04-24T03:38:30.498Z,59.80
2018-04-24T03:40:58.029Z,59.90
2018-04-24T03:43:25.617Z,60.00
2018-04-24T03:45:53.245Z,59.70
2018-04-24T03:48:20.808Z,59.60
2018-04-24T03:50:49.149Z,59.60
2018-04-24T03:53:16.715Z,59.60
2018-04-24T03:55:44.601Z,59.50
2018-04-24T03:58:12.423Z,59.80
2018-04-24T04:00:39.955Z,59.70
2018-04-24T04:03:07.508Z,59.80
2018-04-24T04:05:35.150Z,59.70
2018-04-24T04:08:03.486Z,59.70
2018-04-24T04:10:31.030Z,59.70
2018-04-24T04:12:58.655Z,59.70
2018-04-24T04:15:26.316Z,59.90
2018-04-24T04:18:05.663Z,59.80
2018-04-24T04:20:45.711Z,59.90
2018-04-24T04:23:25.720Z,59.70
2018-04-24T04:25:53.280Z,59.70
2018-04-24T04:28:20.811Z,59.70
2018-04-24T04:30:48.730Z,59.70
2018-04-24T04:33:16.262Z,59.70
2018-04-24T04:35:44.545Z,60.20
2018-04-24T04:38:12.151Z,59.40
2018-04-24T04:40:39.692Z,59.50
2018-04-24T04:43:07.264Z,59.60
2018-04-24T04:45:35.552Z,59.60
2018-04-24T04:48:03.154Z,59.60
2018-04-24T04:50:30.773Z,59.50
2018-04-24T04:52:58.383Z,59.60
2018-04-24T04:55:25.931Z,59.70
2018-04-24T04:57:53.458Z,59.70
2018-04-24T05:00:21.078Z,60.00
2018-04-24T05:02:48.636Z,59.80
2018-04-24T05:05:16.233Z,59.50
2018-04-24T05:07:43.830Z,59.40
2018-04-24T05:10:11.356Z,59.20
2018-04-24T05:12:38.912Z,59.10
2018-04-24T05:15:06.480Z,59.10
2018-04-24T05:17:34.027Z,58.90
2018-04-24T05:20:01.662Z,59.20
2018-04-24T05:22:29.215Z,59.20
2018-04-24T05:24:56.777Z,59.40
2018-04-24T05:27:24.575Z,59.70
2018-04-24T05:29:52.195Z,59.40
2018-04-24T05:32:19.789Z,59.10
2018-04-24T05:34:48.167Z,58.90
2018-04-24T05:37:16.497Z,59.00
2018-04-24T05:39:44.101Z,58.90
2018-04-24T05:42:11.688Z,58.70
2018-04-24T05:44:39.324Z,58.70
2018-04-24T05:47:07.048Z,58.70
2018-04-24T05:49:34.617Z,58.80
2018-04-24T05:52:02.188Z,59.10
2018-04-24T05:54:29.759Z,59.20
2018-04-24T05:56:57.376Z,59.20
2018-04-24T05:59:24.932Z,59.40
2018-04-24T06:01:52.500Z,59.20
2018-04-24T06:04:20.105Z,59.00
2018-04-24T06:06:48.469Z,59.00
2018-04-24T06:09:16.186Z,59.00
2018-04-24T06:11:43.783Z,59.00
2018-04-24T06:14:11.381Z,59.00
2018-04-24T06:16:38.920Z,58.80
2018-04-24T06:19:06.618Z,58.70
2018-04-24T06:21:34.195Z,58.70
2018-04-24T06:24:01.740Z,58.60
2018-04-24T06:26:29.275Z,58.60
2018-04-24T06:28:56.845Z,58.60
2018-04-24T06:31:24.406Z,58.30
2018-04-24T06:33:51.996Z,58.30
2018-04-24T06:36:19.762Z,58.20
2018-04-24T06:38:48.154Z,58.40
2018-04-24T06:41:15.717Z,58.30
2018-04-24T06:43:43.281Z,58.60
2018-04-24T06:46:10.855Z,58.30
2018-04-24T06:48:38.522Z,58.30
2018-04-24T06:51:06.092Z,58.20
2018-04-24T06:53:34.439Z,57.90
2018-04-24T06:56:02.017Z,58.30
2018-04-24T06:58:29.644Z,57.70
2018-04-24T07:00:57.525Z,57.70
2018-04-24T07:03:25.119Z,57.70
2018-04-24T07:05:52.704Z,57.50
2018-04-24T07:08:21.089Z,57.10
2018-04-24T07:10:48.784Z,57.10
2018-04-24T07:13:16.386Z,56.80
2018-04-24T07:15:44.051Z,56.40
2018-04-24T07:18:12.384Z,55.20
2018-04-24T07:20:40.181Z,55.10
2018-04-24T07:23:07.725Z,54.80
2018-04-24T07:25:35.305Z,54.90
2018-04-24T07:28:02.931Z,54.70
2018-04-24T07:30:30.523Z,54.60
2018-04-24T07:32:58.786Z,54.30
2018-04-24T07:35:27.150Z,53.90
2018-04-24T07:37:54.720Z,53.20
2018-04-24T07:40:22.588Z,52.80
2018-04-24T07:42:50.821Z,52.70
2018-04-24T07:45:18.359Z,52.90
2018-04-24T07:47:45.957Z,52.70
2018-04-24T07:50:13.721Z,52.30
2018-04-24T07:52:41.414Z,51.50
2018-04-24T07:55:08.991Z,50.60
2018-04-24T07:57:36.548Z,50.10
2018-04-24T08:00:05.073Z,50.30
2018-04-24T08:02:32.600Z,50.30
2018-04-24T08:05:00.491Z,49.70
2018-04-24T08:07:28.790Z,49.10
2018-04-24T08:10:01.722Z,48.90
2018-04-24T08:12:29.284Z,49.10
2018-04-24T08:14:56.844Z,48.90
2018-04-24T08:17:24.531Z,47.50
2018-04-24T08:19:52.888Z,48.20
2018-04-24T08:22:20.446Z,47.20
2018-04-24T08:24:48.102Z,47.50
2018-04-24T08:27:15.978Z,48.00
2018-04-24T08:29:43.717Z,47.00
2018-04-24T08:32:11.313Z,47.50
2018-04-24T08:34:38.863Z,47.60
2018-04-24T08:37:06.477Z,47.50
2018-04-24T08:39:34.291Z,47.20
2018-04-24T08:42:02.711Z,47.10
2018-04-24T08:44:30.292Z,47.10
2018-04-24T08:46:57.860Z,47.10
2018-04-24T08:49:25.429Z,46.90
2018-04-24T08:51:52.990Z,46.10
2018-04-24T08:54:21.495Z,45.70
2018-04-24T08:56:49.167Z,45.70
2018-04-24T08:59:16.867Z,45.90
2018-04-24T09:01:44.441Z,45.60
2018-04-24T09:04:12.090Z,46.20
2018-04-24T09:06:39.821Z,46.60
2018-04-24T09:09:07.763Z,46.50
2018-04-24T09:11:35.332Z,46.70
2018-04-24T09:14:03.077Z,46.30
2018-04-24T09:16:30.708Z,46.10
2018-04-24T09:18:58.269Z,46.10
2018-04-24T09:21:25.839Z,45.90
2018-04-24T09:23:53.701Z,45.50
2018-04-24T09:26:21.281Z,45.40
2018-04-24T09:28:48.889Z,44.50
2018-04-24T09:31:17.192Z,44.70
2018-04-24T09:33:44.967Z,44.60
2018-04-24T09:36:12.626Z,45.40
2018-04-24T09:38:40.349Z,45.80
2018-04-24T09:41:08.019Z,46.60
2018-04-24T09:43:35.604Z,46.10
2018-04-24T09:46:03.255Z,45.60
2018-04-24T09:48:30.747Z,46.00
2018-04-24T09:51:03.317Z,45.90
2018-04-24T09:53:30.881Z,45.90
2018-04-24T09:55:58.426Z,46.00
2018-04-24T09:58:25.984Z,45.30
2018-04-24T10:00:53.543Z,45.50
2018-04-24T10:03:21.151Z,45.20
2018-04-24T10:05:48.727Z,45.10
2018-04-24T10:08:16.333Z,44.50
2018-04-24T10:10:43.906Z,43.90
2018-04-24T10:13:11.453Z,43.60
2018-04-24T10:15:39.043Z,43.30
2018-04-24T10:18:06.620Z,43.50
2018-04-24T10:20:35.073Z,43.40
2018-04-24T10:23:02.651Z,42.80
2018-04-24T10:25:30.255Z,42.80
2018-04-24T10:27:58.344Z,43.00
2018-04-24T10:30:25.991Z,42.10
2018-04-24T10:32:53.541Z,42.30
2018-04-24T10:35:22.076Z,42.60
2018-04-24T10:37:49.744Z,42.60
2018-04-24T10:40:17.377Z,42.20
2018-04-24T10:42:44.960Z,41.80
2018-04-24T10:45:12.512Z,41.50
2018-04-24T10:47:40.203Z,41.80
2018-04-24T10:50:07.801Z,42.10
2018-04-24T10:52:35.821Z,42.10
2018-04-24T10:55:03.469Z,41.40
2018-04-24T10:57:31.077Z,41.80
2018-04-24T10:59:58.857Z,41.10
2018-04-24T11:02:26.460Z,41.60
2018-04-24T11:04:54.155Z,41.80
2018-04-24T11:07:21.764Z,42.00
2018-04-24T11:09:49.463Z,42.30
2018-04-24T11:12:17.037Z,42.00
2018-04-24T11:14:44.695Z,41.80
2018-04-24T11:17:12.279Z,42.20
2018-04-24T11:19:39.882Z,42.30
2018-04-24T11:22:07.453Z,41.70
2018-04-24T11:24:35.264Z,42.10
2018-04-24T11:27:02.903Z,42.20
2018-04-24T11:29:30.560Z,42.80
2018-04-24T11:31:58.897Z,42.70
2018-04-24T11:34:26.520Z,42.60
2018-04-24T11:36:54.145Z,42.40
2018-04-24T11:39:21.747Z,42.60
2018-04-24T11:41:49.468Z,42.90
2018-04-24T11:44:17.144Z,42.50
2018-04-24T11:46:44.785Z,42.20
2018-04-24T11:49:12.355Z,42.80
2018-04-24T11:51:39.960Z,42.90
2018-04-24T11:54:07.594Z,42.60
2018-04-24T11:56:35.935Z,44.00
2018-04-24T11:59:03.644Z,42.90
2018-04-24T12:01:31.276Z,43.70
2018-04-24T12:03:58.964Z,42.70
2018-04-24T12:06:27.658Z,41.50
2018-04-24T12:08:55.421Z,41.50
2018-04-24T12:11:23.725Z,41.50
2018-04-24T12:13:51.429Z,41.50
2018-04-24T12:16:19.060Z,42.40
2018-04-24T12:18:46.669Z,41.90
2018-04-24T12:21:14.200Z,42.00
2018-04-24T12:23:41.816Z,42.30
2018-04-24T12:26:09.405Z,41.20
2018-04-24T12:28:36.978Z,41.20
2018-04-24T12:31:04.658Z,42.20
2018-04-24T12:33:32.207Z,41.80
2018-04-24T12:35:59.815Z,42.00
2018-04-24T12:38:28.251Z,41.50
2018-04-24T12:40:56.061Z,41.80
2018-04-24T12:43:23.593Z,41.60
2018-04-24T12:45:51.177Z,41.70
2018-04-24T12:48:19.568Z,40.80
2018-04-24T12:50:47.097Z,40.90
2018-04-24T12:53:14.754Z,40.70
2018-04-24T12:55:42.329Z,40.70
2018-04-24T12:58:10.713Z,41.20
2018-04-24T13:00:39.058Z,41.10
2018-04-24T13:03:06.596Z,41.00
2018-04-24T13:05:34.350Z,40.80
2018-04-24T13:08:01.907Z,40.70
2018-04-24T13:10:29.540Z,40.80
2018-04-24T13:12:57.085Z,40.70
2018-04-24T13:15:24.652Z,40.00
2018-04-24T13:17:52.229Z,39.90
2018-04-24T13:20:19.808Z,40.80
2018-04-24T13:22:47.599Z,40.80
2018-04-24T13:25:15.403Z,41.20
2018-04-24T13:27:42.969Z,41.50
2018-04-24T13:30:10.571Z,41.70
2018-04-24T13:32:39.103Z,42.00
2018-04-24T13:35:07.421Z,41.50
2018-04-24T13:37:35.047Z,41.50
2018-04-24T13:40:03.344Z,42.10
2018-04-24T13:42:31.110Z,42.10
2018-04-24T13:44:58.663Z,41.70
2018-04-24T13:47:26.282Z,41.40
2018-04-24T13:49:54.034Z,41.50
2018-04-24T13:52:22.426Z,41.20
2018-04-24T13:54:50.016Z,41.20
2018-04-24T13:57:17.663Z,41.10
2018-04-24T13:59:46.038Z,41.80
2018-04-24T14:02:13.726Z,41.80
2018-04-24T14:04:41.297Z,42.70
2018-04-24T14:07:08.901Z,41.80
2018-04-24T14:09:37.216Z,43.10
2018-04-24T14:12:04.822Z,43.20
2018-04-24T14:14:32.444Z,43.30
2018-04-24T14:17:00.053Z,43.60
2018-04-24T14:19:27.790Z,43.40
2018-04-24T14:21:55.535Z,43.50
2018-04-24T14:24:23.135Z,43.40
2018-04-24T14:26:50.677Z,43.50
2018-04-24T14:29:18.290Z,43.60
2018-04-24T14:31:46.630Z,43.10
2018-04-24T14:34:14.394Z,43.10
2018-04-24T14:36:41.996Z,42.90
2018-04-24T14:39:09.576Z,42.90
2018-04-24T14:41:37.148Z,43.30
2018-04-24T14:44:04.754Z,43.10
2018-04-24T14:46:32.339Z,42.90
2018-04-24T14:49:00.706Z,43.10
2018-04-24T14:51:28.499Z,43.10
2018-04-24T14:53:56.864Z,43.20
2018-04-24T14:56:25.289Z,43.30
2018-04-24T14:58:52.881Z,43.20
2018-04-24T15:01:20.467Z,42.60
2018-04-24T15:03:48.808Z,42.50
2018-04-24T15:06:16.358Z,42.50
2018-04-24T15:08:43.931Z,42.70
2018-04-24T15:11:11.471Z,43.10
2018-04-24T15:13:39.253Z,43.10
2018-04-24T15:16:06.777Z,42.60
2018-04-24T15:18:34.373Z,42.50
2018-04-24T15:21:01.957Z,42.50
2018-04-24T15:23:30.302Z,43.50
2018-04-24T15:25:57.875Z,43.50
2018-04-24T15:28:25.456Z,43.50
2018-04-24T15:30:54.506Z,44.00
2018-04-24T15:33:22.498Z,43.70
2018-04-24T15:35:50.098Z,43.80
2018-04-24T15:38:18.420Z,42.50
2018-04-24T15:40:46.845Z,43.00
2018-04-24T15:43:14.532Z,43.00
2018-04-24T15:45:42.096Z,41.90
2018-04-24T15:48:09.714Z,41.70
2018-04-24T15:50:37.300Z,42.10
2018-04-24T15:53:05.619Z,42.40
2018-04-24T15:55:33.191Z,42.50
2018-04-24T15:58:05.011Z,43.30
2018-04-24T16:00:32.735Z,43.10
2018-04-24T16:03:00.369Z,42.50
2018-04-24T16:05:28.235Z,42.00
2018-04-24T16:07:55.803Z,42.20
2018-04-24T16:10:23.326Z,42.40
2018-04-24T16:12:50.898Z,42.70
2018-04-24T16:15:18.519Z,43.10
2018-04-24T16:17:46.063Z,43.50
2018-04-24T16:20:13.697Z,43.50
2018-04-24T16:22:41.276Z,43.90
2018-04-24T16:25:08.897Z,43.90
2018-04-24T16:27:36.578Z,43.70
2018-04-24T16:30:04.334Z,43.40
2018-04-24T16:32:31.804Z,43.60
2018-04-24T16:34:59.404Z,43.50
2018-04-24T16:37:27.054Z,44.00
2018-04-24T16:39:54.651Z,43.30
2018-04-24T16:42:22.215Z,43.20
2018-04-24T16:44:50.366Z,43.60
2018-04-24T16:47:17.987Z,44.10
2018-04-24T16:49:45.564Z,44.60
2018-04-24T16:52:13.209Z,44.60
2018-04-24T16:54:40.776Z,44.40
2018-04-24T16:57:08.413Z,44.20
2018-04-24T16:59:36.016Z,44.80
2018-04-24T17:02:03.746Z,44.00
2018-04-24T17:04:31.810Z,43.60
2018-04-24T17:06:59.346Z,43.20
2018-04-24T17:09:26.971Z,43.90
2018-04-24T17:11:54.588Z,43.60
2018-04-24T17:14:22.152Z,44.40
2018-04-24T17:16:49.735Z,44.20
2018-04-24T17:19:17.386Z,44.50
2018-04-24T17:21:44.984Z,44.80
2018-04-24T17:24:12.593Z,45.20
2018-04-24T17:26:40.238Z,45.50
2018-04-24T17:29:07.873Z,46.00
2018-04-24T17:31:36.237Z,46.20
2018-04-24T17:34:03.833Z,46.10
2018-04-24T17:36:31.450Z,46.00
2018-04-24T17:38:59.041Z,46.30
2018-04-24T17:41:26.623Z,45.60
2018-04-24T17:43:54.232Z,45.80
2018-04-24T17:46:21.965Z,45.60
2018-04-24T17:48:49.528Z,46.00
2018-04-24T17:51:17.096Z,46.20
2018-04-24T17:53:44.651Z,46.10
2018-04-24T17:56:12.244Z,46.30
2018-04-24T17:58:39.816Z,46.70
2018-04-24T18:01:08.148Z,46.90
2018-04-24T18:03:35.716Z,46.80
2018-04-24T18:06:03.316Z,47.10
2018-04-24T18:08:30.940Z,46.90
2018-04-24T18:10:58.518Z,46.80
2018-04-24T18:13:26.128Z,46.60
2018-04-24T18:15:53.695Z,46.90
2018-04-24T18:18:21.295Z,46.90
2018-04-24T18:20:48.848Z,47.10
2018-04-24T18:23:16.427Z,47.30
2018-04-24T18:25:44.152Z,47.40
2018-04-24T18:28:11.711Z,47.50
2018-04-24T18:30:39.281Z,47.70
2018-04-24T18:33:06.840Z,48.10
2018-04-24T18:35:34.402Z,48.10
2018-04-24T18:38:01.999Z,48.40
2018-04-24T18:40:29.607Z,48.80
2018-04-24T18:42:57.786Z,49.00
2018-04-24T18:45:25.363Z,49.30
2018-04-24T18:47:53.020Z,49.60
2018-04-24T18:50:20.588Z,50.00
2018-04-24T18:52:48.940Z,50.40
2018-04-24T18:55:16.610Z,51.00
2018-04-24T18:57:44.234Z,50.50
2018-04-24T19:00:11.814Z,50.60
2018-04-24T19:02:39.391Z,50.60
2018-04-24T19:05:06.965Z,50.70
2018-04-24T19:07:34.561Z,50.70
2018-04-24T19:10:02.144Z,50.90
2018-04-24T19:12:32.707Z,51.10
2018-04-24T19:15:00.854Z,51.10
2018-04-24T19:17:28.445Z,51.20
2018-04-24T19:19:55.976Z,51.60
2018-04-24T19:22:24.428Z,51.60
2018-04-24T19:24:58.401Z,51.90
2018-04-24T19:27:26.052Z,51.90
2018-04-24T19:29:53.617Z,52.00
2018-04-24T19:32:26.924Z,52.20
2018-04-24T19:34:54.565Z,52.30
2018-04-24T19:37:22.196Z,52.40
2018-04-24T19:39:55.284Z,52.40
2018-04-24T19:42:23.743Z,52.70
2018-04-24T19:44:51.320Z,52.60
2018-04-24T19:47:19.612Z,53.10
2018-04-24T19:49:53.687Z,53.10
2018-04-24T19:52:21.227Z,53.10
2018-04-24T19:54:54.380Z,53.30
2018-04-24T19:57:21.971Z,53.70
2018-04-24T19:59:49.591Z,54.00
2018-04-24T20:02:17.147Z,54.00
2018-04-24T20:04:44.708Z,54.00
2018-04-24T20:07:13.006Z,54.00
2018-04-24T20:09:40.694Z,54.00
2018-04-24T20:12:08.270Z,53.90
2018-04-24T20:14:35.934Z,53.90
2018-04-24T20:17:04.272Z,53.80
2018-04-24T20:19:31.843Z,53.90
2018-04-24T20:21:59.425Z,53.90
2018-04-24T20:24:27.029Z,53.90
2018-04-24T20:26:55.226Z,54.10
2018-04-24T20:29:22.784Z,54.30
2018-04-24T20:31:50.357Z,54.50
2018-04-24T20:34:17.952Z,54.40
2018-04-24T20:36:45.551Z,54.30
2018-04-24T20:39:13.139Z,54.50
2018-04-24T20:41:40.701Z,54.50
2018-04-24T20:44:08.265Z,54.70
2018-04-24T20:46:35.864Z,54.80
2018-04-24T20:49:03.419Z,54.60
2018-04-24T20:51:31.015Z,54.70
2018-04-24T20:53:58.636Z,54.50
2018-04-24T20:56:26.169Z,54.50
2018-04-24T20:58:53.776Z,54.30
2018-04-24T21:01:21.329Z,54.60
2018-04-24T21:03:49.031Z,54.60
2018-04-24T21:06:16.822Z,54.70
2018-04-24T21:08:44.463Z,55.00
2018-04-24T21:11:12.041Z,55.70
2018-04-24T21:13:39.587Z,55.10
2018-04-24T21:16:07.203Z,55.00
2018-04-24T21:18:35.514Z,55.00
2018-04-24T21:21:03.055Z,55.00
2018-04-24T21:23:30.644Z,55.10
2018-04-24T21:25:58.195Z,55.00
2018-04-24T21:28:25.826Z,55.00
2018-04-24T21:30:53.449Z,55.10
2018-04-24T21:33:21.027Z,55.60
2018-04-24T21:35:48.565Z,55.60
2018-04-24T21:38:16.143Z,55.60
2018-04-24T21:40:43.767Z,55.70
2018-04-24T21:43:11.367Z,55.80
2018-04-24T21:45:38.954Z,55.90
2018-04-24T21:48:06.552Z,55.60
2018-04-24T21:50:34.132Z,55.60
2018-04-24T21:53:01.702Z,55.60
2018-04-24T21:55:29.295Z,55.70
2018-04-24T21:57:56.840Z,55.70
2018-04-24T22:00:24.400Z,55.80
2018-04-24T22:02:52.769Z,56.00
2018-04-24T22:05:20.335Z,56.00
2018-04-24T22:07:47.898Z,56.30
2018-04-24T22:10:15.471Z,56.60
2018-04-24T22:12:43.768Z,56.40
2018-04-24T22:15:11.345Z,56.30
2018-04-24T22:17:38.909Z,56.40
2018-04-24T22:20:06.493Z,56.40
2018-04-24T22:22:34.055Z,56.30
2018-04-24T22:25:01.687Z,56.30
2018-04-24T22:27:29.241Z,56.40
2018-04-24T22:29:56.808Z,56.40
2018-04-24T22:32:24.402Z,56.20
2018-04-24T22:34:51.972Z,56.20
2018-04-24T22:37:19.498Z,56.40
2018-04-24T22:39:47.057Z,56.20
2018-04-24T22:42:14.654Z,56.10
2018-04-24T22:44:42.224Z,56.00
2018-04-24T22:47:09.752Z,55.90
2018-04-24T22:49:37.318Z,55.90
2018-04-24T22:52:04.857Z,56.10
2018-04-24T22:54:32.468Z,56.20
2018-04-24T22:57:00.018Z,56.10
2018-04-24T22:59:27.600Z,56.10
2018-04-24T23:01:55.149Z,56.20
2018-04-24T23:04:23.544Z,56.10
2018-04-24T23:06:51.091Z,56.10
2018-04-24T23:09:18.689Z,56.20
2018-04-24T23:11:58.038Z,56.20
2018-04-24T23:14:37.408Z,56.40
2018-04-24T23:17:16.768Z,56.30
2018-04-24T23:19:56.700Z,56.00
2018-04-24T23:22:31.986Z,55.90
2018-04-24T23:24:59.544Z,55.90
2018-04-24T23:27:27.160Z,55.90
2018-04-24T23:29:55.510Z,56.20
2018-04-24T23:32:23.061Z,56.10
2018-04-24T23:34:50.626Z,56.30
2018-04-24T23:37:18.206Z,56.30
2018-04-24T23:39:45.784Z,56.20
2018-04-24T23:42:13.399Z,56.10
2018-04-24T23:44:40.996Z,56.20
2018-04-24T23:47:08.583Z,56.10
2018-04-24T23:49:36.176Z,56.20
2018-04-24T23:52:03.744Z,56.40
2018-04-24T23:54:31.283Z,56.40
2018-04-24T23:56:58.855Z,56.20
2018-04-24T23:59:26.403Z,56.00
